Time;durP1;ratioP1;P1;durP2;ratioP2;P2;SDS_P1;SDS_P2;PMS_P1;PMS_P2;Temp;Humidity;BMP_temperature;BMP_pressure;BME280_temperature;BME280_humidity;BME280_pressure;Samples;Min_cycle;Max_cycle;Signal;HPM_P1;HPM_P2
2022/08/04 00:00:15;;;;;;;6.83;2.90;;;;;;;;;;5075015;28;20213;-67
2022/08/04 00:02:46;;;;;;;7.57;2.83;;;;;;;;;;5075320;28;20645;-67
2022/08/04 00:05:19;;;;;;;9.77;2.80;;;;;;;;;;5075046;28;20662;-68
2022/08/04 00:07:56;;;;;;;5.80;2.90;;;;;;;;;;5057686;28;20173;-68
2022/08/04 00:10:22;;;;;;;7.63;2.83;;;;;;;;;;5056960;28;20177;-67
2022/08/04 00:12:50;;;;;;;3.83;2.17;;;;;;;;;;5056871;28;20243;-68
2022/08/04 00:15:17;;;;;;;7.90;2.97;;;;;;;;;;5074495;28;20761;-68
2022/08/04 00:17:50;;;;;;;4.53;2.50;;;;;;;;;;5074610;28;20256;-68
2022/08/04 00:20:18;;;;;;;6.37;2.87;;;;;;;;;;5056659;28;20257;-68
2022/08/04 00:22:45;;;;;;;4.67;2.80;;;;;;;;;;5074698;28;20180;-68
2022/08/04 00:25:12;;;;;;;9.03;2.73;;;;;;;;;;5055921;28;20351;-68
2022/08/04 00:27:38;;;;;;;7.67;3.43;;;;;;;;;;5074242;28;20178;-68
2022/08/04 00:30:05;;;;;;;6.10;2.60;;;;;;;;;;5074530;28;20256;-68
2022/08/04 00:32:31;;;;;;;9.73;2.97;;;;;;;;;;5056649;28;20177;-67
2022/08/04 00:34:57;;;;;;;8.87;3.20;;;;;;;;;;5074394;28;20255;-68
2022/08/04 00:37:23;;;;;;;7.27;3.07;;;;;;;;;;5056422;28;20186;-68
2022/08/04 00:39:49;;;;;;;10.87;3.10;;;;;;;;;;5074351;28;20200;-68
2022/08/04 00:42:15;;;;;;;8.30;2.77;;;;;;;;;;5056444;28;20209;-68
2022/08/04 00:44:56;;;;;;;8.73;3.08;;;;;;;;;;5073062;28;20898;-67
2022/08/04 00:47:39;;;;;;;5.33;2.80;;;;;;;;;;5073990;28;20201;-68
2022/08/04 00:50:08;;;;;;;7.37;2.73;;;;;;;;;;5056214;28;20537;-67
2022/08/04 00:52:46;;;;;;;5.30;2.60;;;;;;;;;;5073871;28;20173;-68
2022/08/04 00:55:18;;;;;;;8.87;2.87;;;;;;;;;;5056096;28;20251;-68
2022/08/04 00:58:01;;;;;;;8.10;2.40;;;;;;;;;;5073929;28;20166;-67
2022/08/04 01:00:28;;;;;;;7.00;2.30;;;;;;;;;;5074263;28;20169;-68
2022/08/04 01:02:54;;;;;;;5.87;2.43;;;;;;;;;;5073858;28;20178;-68
2022/08/04 01:05:26;;;;;;;4.47;2.33;;;;;;;;;;5073870;28;20190;-68
2022/08/04 01:08:04;;;;;;;5.97;2.50;;;;;;;;;;5074213;28;20168;-67
2022/08/04 01:10:49;;;;;;;5.37;2.70;;;;;;;;;;5074145;28;20181;-67
2022/08/04 01:13:35;;;;;;;7.97;2.70;;;;;;;;;;5073557;28;20178;-67
2022/08/04 01:16:10;;;;;;;7.20;2.73;;;;;;;;;;5052591;28;20282;-67
2022/08/04 01:18:36;;;;;;;5.80;2.77;;;;;;;;;;5073649;28;20493;-67
2022/08/04 01:21:20;;;;;;;9.03;2.50;;;;;;;;;;5055625;28;20180;-67
2022/08/04 01:23:58;;;;;;;5.93;2.97;;;;;;;;;;5073438;28;20200;-67
2022/08/04 01:26:48;;;;;;;7.30;2.60;;;;;;;;;;5073457;28;20186;-67
2022/08/04 01:29:15;;;;;;;5.03;2.63;;;;;;;;;;5073700;28;20178;-67
2022/08/04 01:31:50;;;;;;;9.33;2.97;;;;;;;;;;5055418;28;20201;-68
2022/08/04 01:34:18;;;;;;;5.43;2.83;;;;;;;;;;5073243;28;20189;-68
2022/08/04 01:36:45;;;;;;;4.93;2.30;;;;;;;;;;5055175;28;20268;-68
2022/08/04 01:41:57;;;;;;;7.83;3.03;;;;;;;;;;5073628;28;20177;-68
2022/08/04 01:44:23;;;;;;;7.43;2.70;;;;;;;;;;5073496;28;20202;-67
2022/08/04 01:46:50;;;;;;;8.93;2.60;;;;;;;;;;5073072;28;20694;-67
2022/08/04 01:49:16;;;;;;;9.03;2.80;;;;;;;;;;5055063;28;20649;-67
2022/08/04 01:51:44;;;;;;;12.60;2.50;;;;;;;;;;5072806;28;20792;-67
2022/08/04 01:54:11;;;;;;;6.27;2.57;;;;;;;;;;5072757;28;20278;-65
2022/08/04 01:56:37;;;;;;;7.53;2.17;;;;;;;;;;5072986;28;20173;-67
2022/08/04 01:59:03;;;;;;;11.17;2.67;;;;;;;;;;5072958;28;20265;-68
2022/08/04 02:01:29;;;;;;;7.40;2.50;;;;;;;;;;5072996;28;20261;-68
2022/08/04 02:03:55;;;;;;;5.70;2.70;;;;;;;;;;5072795;28;20190;-68
2022/08/04 02:06:30;;;;;;;10.17;2.80;;;;;;;;;;5054815;28;20275;-67
2022/08/04 02:08:56;;;;;;;4.17;2.43;;;;;;;;;;5072919;28;20176;-67
2022/08/04 02:11:24;;;;;;;8.63;2.13;;;;;;;;;;5055380;28;20181;-67
2022/08/04 02:13:59;;;;;;;10.10;3.50;;;;;;;;;;5072500;28;20201;-68
2022/08/04 02:16:44;;;;;;;7.93;2.97;;;;;;;;;;5073397;28;20204;-67
2022/08/04 02:19:16;;;;;;;4.40;2.50;;;;;;;;;;5054979;28;20645;-68
2022/08/04 02:21:44;;;;;;;5.83;2.70;;;;;;;;;;5072816;28;20293;-67
2022/08/04 02:24:13;;;;;;;6.27;3.10;;;;;;;;;;5072921;28;20269;-68
2022/08/04 02:26:41;;;;;;;7.37;2.70;;;;;;;;;;5054629;28;20206;-68
2022/08/04 02:29:17;;;;;;;5.23;2.47;;;;;;;;;;5072959;28;20265;-67
2022/08/04 02:31:56;;;;;;;6.93;2.37;;;;;;;;;;5054756;28;20196;-67
2022/08/04 02:34:25;;;;;;;4.47;2.63;;;;;;;;;;5073083;28;20197;-68
2022/08/04 02:36:52;;;;;;;6.70;2.63;;;;;;;;;;5054636;28;20181;-67
2022/08/04 02:39:19;;;;;;;7.53;2.67;;;;;;;;;;5073123;28;20189;-68
2022/08/04 02:41:46;;;;;;;11.67;3.20;;;;;;;;;;5072527;28;20174;-68
2022/08/04 02:44:13;;;;;;;10.73;2.70;;;;;;;;;;5072681;28;20679;-68
2022/08/04 02:46:40;;;;;;;5.50;2.60;;;;;;;;;;5072741;28;20213;-67
2022/08/04 02:49:10;;;;;;;5.97;2.30;;;;;;;;;;5073876;28;20170;-67
2022/08/04 02:51:37;;;;;;;5.77;2.70;;;;;;;;;;5058335;28;20178;-67
2022/08/04 02:54:04;;;;;;;8.03;2.50;;;;;;;;;;5058314;28;20203;-68
2022/08/04 02:56:31;;;;;;;8.33;2.80;;;;;;;;;;5076434;28;20203;-68
2022/08/04 02:59:07;;;;;;;10.13;2.67;;;;;;;;;;5058247;28;20186;-67
2022/08/04 03:01:34;;;;;;;6.50;2.50;;;;;;;;;;5076613;28;20162;-65
2022/08/04 03:04:17;;;;;;;5.13;2.77;;;;;;;;;;5076034;28;20673;-67
2022/08/04 03:06:58;;;;;;;6.00;3.00;;;;;;;;;;5076301;28;20193;-67
2022/08/04 03:09:36;;;;;;;9.63;2.93;;;;;;;;;;5076042;28;20170;-68
2022/08/04 03:12:14;;;;;;;4.03;2.20;;;;;;;;;;5076032;28;20249;-66
2022/08/04 03:14:57;;;;;;;9.63;2.97;;;;;;;;;;5058022;28;20209;-68
2022/08/04 03:17:42;;;;;;;7.33;3.23;;;;;;;;;;5075852;28;20178;-68
2022/08/04 03:20:08;;;;;;;6.43;2.67;;;;;;;;;;5075857;28;20234;-68
2022/08/04 03:22:52;;;;;;;7.47;2.67;;;;;;;;;;5057916;28;20227;-68
2022/08/04 03:25:28;;;;;;;7.87;2.87;;;;;;;;;;5057851;28;20198;-68
2022/08/04 03:27:54;;;;;;;4.67;2.20;;;;;;;;;;5075771;28;20204;-68
2022/08/04 03:30:25;;;;;;;7.73;2.97;;;;;;;;;;5057896;28;20224;-68
2022/08/04 03:33:14;;;;;;;8.33;2.67;;;;;;;;;;5057761;28;20166;-68
2022/08/04 03:35:40;;;;;;;9.60;2.87;;;;;;;;;;5057663;28;20240;-69
2022/08/04 03:38:25;;;;;;;9.67;3.00;;;;;;;;;;5075686;28;20209;-68
2022/08/04 03:41:09;;;;;;;11.17;3.00;;;;;;;;;;5075896;28;20181;-68
2022/08/04 03:44:02;;;;;;;8.17;2.80;;;;;;;;;;5075483;28;20192;-68
2022/08/04 03:46:43;;;;;;;10.07;2.80;;;;;;;;;;5057440;28;20704;-68
2022/08/04 03:49:28;;;;;;;8.60;3.07;;;;;;;;;;5075788;28;20257;-69
2022/08/04 03:55:03;;;;;;;7.40;2.63;;;;;;;;;;5075357;28;20205;-68
2022/08/04 03:57:41;;;;;;;6.97;2.73;;;;;;;;;;5075265;28;20178;-68
2022/08/04 04:00:21;;;;;;;6.07;2.60;;;;;;;;;;5075260;28;20527;-68
2022/08/04 04:02:49;;;;;;;8.07;2.87;;;;;;;;;;5075197;28;20181;-68
2022/08/04 04:05:18;;;;;;;8.07;2.70;;;;;;;;;;5075072;28;20577;-67
2022/08/04 04:08:03;;;;;;;8.80;3.00;;;;;;;;;;5075107;28;20178;-68
2022/08/04 04:10:35;;;;;;;10.00;2.80;;;;;;;;;;5075315;28;20709;-68
2022/08/04 04:13:01;;;;;;;9.13;2.47;;;;;;;;;;5057104;28;20231;-68
2022/08/04 04:15:42;;;;;;;6.50;2.90;;;;;;;;;;5057023;28;20249;-68
2022/08/04 04:18:22;;;;;;;5.67;2.63;;;;;;;;;;5075169;28;20210;-68
2022/08/04 04:20:51;;;;;;;8.10;3.13;;;;;;;;;;5057039;28;20182;-68
2022/08/04 04:23:27;;;;;;;7.00;3.23;;;;;;;;;;5074780;28;20272;-68
2022/08/04 04:26:08;;;;;;;7.47;3.43;;;;;;;;;;5075005;28;20197;-68
2022/08/04 04:28:34;;;;;;;10.47;3.23;;;;;;;;;;5056810;28;20174;-68
2022/08/04 04:31:16;;;;;;;14.17;3.30;;;;;;;;;;5075240;28;20231;-68
2022/08/04 04:33:42;;;;;;;8.13;2.90;;;;;;;;;;5056557;28;20197;-68
2022/08/04 04:36:11;;;;;;;7.17;2.80;;;;;;;;;;5074629;28;20185;-68
2022/08/04 04:38:40;;;;;;;8.23;3.07;;;;;;;;;;5074977;28;20186;-68
2022/08/04 04:41:23;;;;;;;7.90;2.80;;;;;;;;;;5074415;28;20182;-68
2022/08/04 04:44:02;;;;;;;9.53;3.17;;;;;;;;;;5074573;28;20254;-68
2022/08/04 04:46:48;;;;;;;8.60;2.90;;;;;;;;;;5074266;28;20673;-68
2022/08/04 04:49:17;;;;;;;5.13;2.47;;;;;;;;;;5074269;28;20190;-68
2022/08/04 04:51:51;;;;;;;9.37;3.03;;;;;;;;;;5056332;28;20306;-68
2022/08/04 04:54:26;;;;;;;7.20;2.80;;;;;;;;;;5074173;28;20200;-69
2022/08/04 04:57:00;;;;;;;5.60;2.87;;;;;;;;;;5056165;28;20181;-68
2022/08/04 04:59:28;;;;;;;10.97;2.77;;;;;;;;;;5056122;28;20170;-69
2022/08/04 05:02:07;;;;;;;7.83;3.47;;;;;;;;;;5074011;28;20185;-69
2022/08/04 05:04:36;;;;;;;5.83;2.80;;;;;;;;;;5073927;28;20583;-68
2022/08/04 05:07:11;;;;;;;6.80;3.20;;;;;;;;;;5055876;28;20631;-68
2022/08/04 05:09:37;;;;;;;12.40;3.40;;;;;;;;;;5074159;28;20173;-69
2022/08/04 05:12:31;;;;;;;10.05;2.92;;;;;;;;;;5055474;28;20254;-68
2022/08/04 05:14:58;;;;;;;8.13;3.23;;;;;;;;;;5073639;28;20296;-68
2022/08/04 05:17:32;;;;;;;12.77;3.23;;;;;;;;;;5073657;28;20177;-69
2022/08/04 05:20:05;;;;;;;5.80;2.70;;;;;;;;;;5073740;28;20170;-68
2022/08/04 05:22:37;;;;;;;7.20;3.10;;;;;;;;;;5073726;28;20177;-68
2022/08/04 05:25:06;;;;;;;8.73;3.47;;;;;;;;;;5073787;28;20202;-68
2022/08/04 05:27:37;;;;;;;6.97;3.00;;;;;;;;;;5073478;28;20692;-68
2022/08/04 05:30:05;;;;;;;13.33;3.37;;;;;;;;;;5073734;28;20311;-68
2022/08/04 05:32:37;;;;;;;5.83;3.20;;;;;;;;;;5073448;28;20170;-68
2022/08/04 05:35:06;;;;;;;11.00;4.03;;;;;;;;;;5055702;28;20677;-68
2022/08/04 05:37:35;;;;;;;8.37;3.53;;;;;;;;;;5055740;28;20182;-68
2022/08/04 05:40:03;;;;;;;9.17;3.67;;;;;;;;;;5073612;28;20178;-68
2022/08/04 05:42:31;;;;;;;12.17;4.63;;;;;;;;;;5055359;28;20327;-68
2022/08/04 05:44:58;;;;;;;6.90;4.03;;;;;;;;;;5073217;28;20201;-68
2022/08/04 05:47:24;;;;;;;10.63;4.50;;;;;;;;;;5073715;28;20201;-68
2022/08/04 05:49:50;;;;;;;13.90;5.10;;;;;;;;;;5073225;28;20174;-68
2022/08/04 05:52:17;;;;;;;9.77;5.10;;;;;;;;;;5073454;28;20249;-68
2022/08/04 05:54:43;;;;;;;9.23;5.20;;;;;;;;;;5055104;28;20198;-68
2022/08/04 05:57:10;;;;;;;11.27;5.13;;;;;;;;;;5073232;28;20177;-68
2022/08/04 05:59:37;;;;;;;10.50;5.80;;;;;;;;;;5073535;28;20595;-68
2022/08/04 06:02:04;;;;;;;11.70;6.00;;;;;;;;;;5073061;28;20622;-68
2022/08/04 06:04:39;;;;;;;16.33;5.37;;;;;;;;;;5073182;28;20680;-68
2022/08/04 06:07:05;;;;;;;12.00;5.77;;;;;;;;;;5073171;28;20212;-68
2022/08/04 06:09:32;;;;;;;9.73;4.97;;;;;;;;;;5055101;28;20184;-68
2022/08/04 06:12:00;;;;;;;9.07;4.57;;;;;;;;;;5073039;28;20174;-69
2022/08/04 06:14:26;;;;;;;8.13;3.83;;;;;;;;;;5073005;28;20259;-68
2022/08/04 06:16:54;;;;;;;7.13;4.57;;;;;;;;;;5073264;28;20191;-68
2022/08/04 06:19:21;;;;;;;7.20;4.57;;;;;;;;;;5055114;28;20571;-68
2022/08/04 06:21:48;;;;;;;7.63;4.83;;;;;;;;;;5054961;28;20185;-68
2022/08/04 06:24:17;;;;;;;9.13;4.83;;;;;;;;;;5056201;28;20212;-68
2022/08/04 06:26:43;;;;;;;9.43;5.93;;;;;;;;;;5058854;28;20760;-68
2022/08/04 06:29:16;;;;;;;10.97;5.30;;;;;;;;;;5058925;28;20261;-68
2022/08/04 06:31:56;;;;;;;7.27;4.50;;;;;;;;;;5077197;28;20257;-68
2022/08/04 06:34:22;;;;;;;7.43;4.10;;;;;;;;;;5077302;28;20272;-68
2022/08/04 06:36:48;;;;;;;5.70;4.30;;;;;;;;;;5076742;28;20189;-68
2022/08/04 06:39:15;;;;;;;14.10;4.53;;;;;;;;;;5058742;28;20186;-68
2022/08/04 06:41:41;;;;;;;10.80;4.70;;;;;;;;;;5076746;28;20208;-68
2022/08/04 06:44:08;;;;;;;12.30;5.47;;;;;;;;;;5058642;28;20237;-68
2022/08/04 06:46:36;;;;;;;9.03;5.63;;;;;;;;;;5077008;28;20669;-68
2022/08/04 06:49:03;;;;;;;10.77;5.27;;;;;;;;;;5077078;28;20543;-68
2022/08/04 06:51:30;;;;;;;6.57;4.67;;;;;;;;;;5058495;28;20228;-68
2022/08/04 06:53:56;;;;;;;8.93;5.13;;;;;;;;;;5076328;28;20193;-68
2022/08/04 06:56:23;;;;;;;15.87;5.30;;;;;;;;;;5058331;28;20185;-68
2022/08/04 06:58:50;;;;;;;9.23;4.60;;;;;;;;;;5076584;28;20697;-68
2022/08/04 07:01:17;;;;;;;5.17;3.83;;;;;;;;;;5058368;28;20178;-69
2022/08/04 07:03:43;;;;;;;11.33;4.17;;;;;;;;;;5058252;28;20178;-68
2022/08/04 07:06:09;;;;;;;10.17;4.47;;;;;;;;;;5076533;28;20198;-68
2022/08/04 07:08:36;;;;;;;9.30;5.33;;;;;;;;;;5076155;28;20174;-68
2022/08/04 07:11:02;;;;;;;11.77;4.23;;;;;;;;;;5076330;28;20596;-68
2022/08/04 07:13:30;;;;;;;10.17;4.13;;;;;;;;;;5075818;28;20550;-69
2022/08/04 07:15:57;;;;;;;9.80;4.03;;;;;;;;;;5076210;28;20173;-68
2022/08/04 07:18:23;;;;;;;7.20;3.97;;;;;;;;;;5075848;28;20654;-68
2022/08/04 07:20:49;;;;;;;9.93;4.33;;;;;;;;;;5076015;28;20182;-68
2022/08/04 07:23:16;;;;;;;8.43;4.80;;;;;;;;;;5099551;22;20302;-69
2022/08/04 07:25:43;;;;;;;10.80;5.07;;;;;;;;;;5058383;28;20566;-69
2022/08/04 07:28:09;;;;;;;15.40;5.83;;;;;;;;;;5076250;28;20177;-69
2022/08/04 07:30:36;;;;;;;15.23;6.50;;;;;;;;;;5058222;28;20269;-69
2022/08/04 07:33:02;;;;;;;13.97;5.93;;;;;;;;;;5076471;28;20202;-70
2022/08/04 07:35:29;;;;;;;11.47;5.97;;;;;;;;;;5057808;28;20178;-69
2022/08/04 07:37:55;;;;;;;10.57;5.77;;;;;;;;;;5076312;28;20174;-70
2022/08/04 07:40:21;;;;;;;13.70;5.60;;;;;;;;;;5076440;28;20547;-71
2022/08/04 07:42:47;;;;;;;10.57;4.90;;;;;;;;;;5057940;28;20228;-70
2022/08/04 07:45:13;;;;;;;6.70;4.53;;;;;;;;;;5076707;28;20240;-70
2022/08/04 07:47:39;;;;;;;10.57;4.27;;;;;;;;;;5058055;28;20233;-69
2022/08/04 07:50:09;;;;;;;6.30;3.97;;;;;;;;;;5058534;28;20174;-70
2022/08/04 07:52:36;;;;;;;7.20;3.67;;;;;;;;;;5076613;28;20181;-70
2022/08/04 07:55:02;;;;;;;6.20;3.57;;;;;;;;;;5077191;28;20193;-70
2022/08/04 07:57:28;;;;;;;4.87;4.07;;;;;;;;;;5076963;28;20200;-70
2022/08/04 07:59:54;;;;;;;10.80;4.43;;;;;;;;;;5076789;28;20277;-70
2022/08/04 08:02:22;;;;;;;9.00;4.67;;;;;;;;;;5058236;28;20247;-70
2022/08/04 08:04:48;;;;;;;9.47;4.90;;;;;;;;;;5075475;28;20201;-70
2022/08/04 08:07:14;;;;;;;7.67;4.67;;;;;;;;;;5075579;28;20198;-70
2022/08/04 08:09:40;;;;;;;5.60;3.77;;;;;;;;;;5057590;28;20184;-70
2022/08/04 08:12:08;;;;;;;11.63;4.47;;;;;;;;;;5075422;28;20178;-72
2022/08/04 08:14:35;;;;;;;6.53;4.53;;;;;;;;;;5075176;28;20201;-70
2022/08/04 08:17:02;;;;;;;5.10;4.10;;;;;;;;;;5075478;28;20657;-70
2022/08/04 08:19:28;;;;;;;7.37;4.10;;;;;;;;;;5075195;28;20269;-70
2022/08/04 08:21:54;;;;;;;6.47;3.60;;;;;;;;;;5075180;28;20244;-70
2022/08/04 08:24:20;;;;;;;4.47;3.63;;;;;;;;;;5075194;28;20804;-70
2022/08/04 08:26:46;;;;;;;10.47;4.00;;;;;;;;;;5075523;28;20289;-70
2022/08/04 08:29:12;;;;;;;6.10;4.13;;;;;;;;;;5075161;28;20178;-69
2022/08/04 08:31:39;;;;;;;5.40;4.03;;;;;;;;;;5075867;28;20205;-70
2022/08/04 08:34:05;;;;;;;8.77;3.63;;;;;;;;;;5075117;28;20272;-70
2022/08/04 08:36:37;;;;;;;5.83;4.03;;;;;;;;;;5074921;28;20197;-70
2022/08/04 08:39:16;;;;;;;5.00;3.83;;;;;;;;;;5074835;28;20182;-70
2022/08/04 08:42:02;;;;;;;6.50;3.83;;;;;;;;;;5074623;28;20196;-70
2022/08/04 08:44:40;;;;;;;14.33;4.17;;;;;;;;;;5075310;28;20692;-70
2022/08/04 08:47:24;;;;;;;6.07;3.67;;;;;;;;;;5055810;28;20206;-71
2022/08/04 08:49:56;;;;;;;4.67;3.23;;;;;;;;;;5074649;28;20354;-70
2022/08/04 08:52:22;;;;;;;6.60;3.10;;;;;;;;;;5074438;28;20520;-70
2022/08/04 08:54:54;;;;;;;4.77;2.70;;;;;;;;;;5074379;28;20200;-70
2022/08/04 08:57:37;;;;;;;7.27;2.80;;;;;;;;;;5056667;28;20192;-71
2022/08/04 09:00:06;;;;;;;5.03;2.80;;;;;;;;;;5056477;28;20184;-70
2022/08/04 09:02:51;;;;;;;9.10;2.60;;;;;;;;;;5056566;28;20178;-70
2022/08/04 09:05:43;;;;;;;5.85;3.38;;;;;;;;;;5074455;28;20174;-70
2022/08/04 09:08:21;;;;;;;2.78;2.53;;;;;;;;;;5072288;28;20251;-70
2022/08/04 09:11:05;;;;;;;5.57;2.80;;;;;;;;;;5074280;28;20170;-70
2022/08/04 09:13:33;;;;;;;3.72;2.47;;;;;;;;;;5056113;28;20208;-71
2022/08/04 09:16:11;;;;;;;6.00;2.88;;;;;;;;;;5056091;28;20220;-70
2022/08/04 09:18:51;;;;;;;5.70;3.00;;;;;;;;;;5074207;28;20252;-69
2022/08/04 09:21:17;;;;;;;4.22;2.80;;;;;;;;;;5056367;28;20189;-71
2022/08/04 09:23:51;;;;;;;4.85;2.83;;;;;;;;;;5074057;28;20338;-71
2022/08/04 09:26:26;;;;;;;4.35;2.80;;;;;;;;;;5073860;28;20193;-70
2022/08/04 09:28:52;;;;;;;3.78;2.75;;;;;;;;;;5057113;28;20197;-71
2022/08/04 09:31:21;;;;;;;4.32;2.50;;;;;;;;;;5073926;28;20228;-72
2022/08/04 09:33:52;;;;;;;4.00;2.65;;;;;;;;;;5073711;28;20197;-70
2022/08/04 09:36:32;;;;;;;10.52;3.38;;;;;;;;;;5074091;28;20223;-70
2022/08/04 09:39:16;;;;;;;4.90;3.08;;;;;;;;;;5074118;28;20185;-70
2022/08/04 09:42:01;;;;;;;6.53;2.90;;;;;;;;;;5074391;28;20256;-70
2022/08/04 09:44:28;;;;;;;4.65;2.80;;;;;;;;;;5073967;28;20199;-70
2022/08/04 09:47:12;;;;;;;6.00;3.33;;;;;;;;;;5074070;28;20190;-70
2022/08/04 09:49:58;;;;;;;3.88;3.05;;;;;;;;;;5056139;28;20266;-70
2022/08/04 09:52:36;;;;;;;6.00;2.92;;;;;;;;;;5074449;28;20174;-70
2022/08/04 09:55:08;;;;;;;3.33;2.70;;;;;;;;;;5073987;28;20194;-70
2022/08/04 09:57:35;;;;;;;3.85;2.67;;;;;;;;;;5074141;28;20166;-70
2022/08/04 10:00:08;;;;;;;8.70;3.47;;;;;;;;;;5074326;28;20269;-70
2022/08/04 10:02:39;;;;;;;5.90;2.75;;;;;;;;;;5073832;28;20634;-70
2022/08/04 10:05:08;;;;;;;9.15;3.50;;;;;;;;;;5074095;28;20190;-70
2022/08/04 10:07:41;;;;;;;9.40;3.10;;;;;;;;;;5073708;28;20190;-70
2022/08/04 10:10:14;;;;;;;4.45;2.92;;;;;;;;;;5073952;28;20163;-70
2022/08/04 10:12:40;;;;;;;7.63;2.92;;;;;;;;;;5073640;28;20624;-70
2022/08/04 10:15:25;;;;;;;10.05;3.10;;;;;;;;;;5073278;28;20177;-70
2022/08/04 10:17:54;;;;;;;9.55;3.60;;;;;;;;;;5073317;28;20247;-71
2022/08/04 10:20:32;;;;;;;6.40;3.08;;;;;;;;;;5055355;28;20182;-71
2022/08/04 10:23:12;;;;;;;3.92;2.40;;;;;;;;;;5073009;28;20185;-70
2022/08/04 10:25:57;;;;;;;6.00;3.30;;;;;;;;;;5073148;28;20169;-70
2022/08/04 10:28:23;;;;;;;4.18;2.45;;;;;;;;;;5073198;28;20665;-71
2022/08/04 10:30:54;;;;;;;7.18;2.63;;;;;;;;;;5073516;28;20220;-67
2022/08/04 10:33:22;;;;;;;3.92;2.72;;;;;;;;;;5054889;28;20200;-67
2022/08/04 10:35:50;;;;;;;7.32;2.90;;;;;;;;;;5072800;28;20166;-67
2022/08/04 10:38:23;;;;;;;7.13;2.60;;;;;;;;;;5054994;28;20177;-67
2022/08/04 10:40:52;;;;;;;5.85;2.70;;;;;;;;;;5054995;28;20178;-67
2022/08/04 10:43:36;;;;;;;3.78;2.42;;;;;;;;;;5054865;28;20674;-67
2022/08/04 10:46:02;;;;;;;5.00;2.72;;;;;;;;;;5072830;28;20277;-67
2022/08/04 10:48:47;;;;;;;2.55;2.35;;;;;;;;;;5072715;28;20197;-67
2022/08/04 10:51:27;;;;;;;4.07;2.92;;;;;;;;;;5072637;28;20174;-67
2022/08/04 10:53:59;;;;;;;4.45;2.50;;;;;;;;;;5072510;28;20205;-67
2022/08/04 10:56:43;;;;;;;4.53;2.72;;;;;;;;;;5054691;28;20177;-67
2022/08/04 10:59:16;;;;;;;4.85;2.83;;;;;;;;;;5072754;28;20680;-67
2022/08/04 11:01:44;;;;;;;5.90;3.17;;;;;;;;;;5073325;28;20245;-67
2022/08/04 11:04:22;;;;;;;3.10;2.80;;;;;;;;;;5054647;28;20678;-67
2022/08/04 11:06:49;;;;;;;6.25;2.95;;;;;;;;;;5072703;28;20204;-67
2022/08/04 11:09:16;;;;;;;8.15;2.63;;;;;;;;;;5072633;28;20170;-67
2022/08/04 11:11:49;;;;;;;4.65;2.83;;;;;;;;;;5076169;28;20174;-67
2022/08/04 11:14:17;;;;;;;7.80;2.83;;;;;;;;;;5058095;28;20696;-67
2022/08/04 11:16:46;;;;;;;8.25;3.25;;;;;;;;;;5076169;28;20181;-67
2022/08/04 11:19:31;;;;;;;4.20;2.83;;;;;;;;;;5076448;28;20174;-67
2022/08/04 11:22:04;;;;;;;10.10;3.13;;;;;;;;;;5058058;28;20657;-67
2022/08/04 11:24:30;;;;;;;3.25;2.97;;;;;;;;;;5076012;28;20720;-67
2022/08/04 11:26:58;;;;;;;8.70;2.75;;;;;;;;;;5076189;28;20193;-67
2022/08/04 11:29:44;;;;;;;14.38;3.08;;;;;;;;;;5076016;28;20224;-67
2022/08/04 11:32:16;;;;;;;4.55;3.00;;;;;;;;;;5068636;28;20204;-67
2022/08/04 11:34:46;;;;;;;5.97;2.65;;;;;;;;;;5075957;28;20200;-67
2022/08/04 11:37:18;;;;;;;5.75;2.70;;;;;;;;;;5075988;28;20200;-66
2022/08/04 11:39:47;;;;;;;10.50;3.05;;;;;;;;;;5075960;28;20170;-66
2022/08/04 11:42:17;;;;;;;6.88;2.97;;;;;;;;;;5075677;28;20181;-67
2022/08/04 11:44:52;;;;;;;4.50;2.88;;;;;;;;;;5057626;28;20758;-67
2022/08/04 11:47:18;;;;;;;4.68;2.60;;;;;;;;;;5075564;28;20197;-67
2022/08/04 11:49:46;;;;;;;7.07;2.80;;;;;;;;;;5075495;28;20653;-67
2022/08/04 11:52:13;;;;;;;6.38;3.10;;;;;;;;;;5075461;28;20176;-67
2022/08/04 11:54:40;;;;;;;7.53;3.17;;;;;;;;;;5075719;28;20193;-67
2022/08/04 11:57:06;;;;;;;4.80;2.95;;;;;;;;;;5057415;28;20601;-67
2022/08/04 11:59:33;;;;;;;5.20;3.05;;;;;;;;;;5075436;28;20580;-67
2022/08/04 12:02:19;;;;;;;11.55;3.00;;;;;;;;;;5057381;28;20187;-67
2022/08/04 12:04:58;;;;;;;4.63;2.80;;;;;;;;;;5075211;28;20194;-67
2022/08/04 12:07:36;;;;;;;5.70;2.83;;;;;;;;;;5057202;28;20197;-67
2022/08/04 12:10:05;;;;;;;13.20;3.47;;;;;;;;;;5075362;28;20177;-66
2022/08/04 12:12:31;;;;;;;7.45;3.55;;;;;;;;;;5057212;28;20228;-67
2022/08/04 12:15:16;;;;;;;11.80;5.03;;;;;;;;;;5074918;28;20600;-66
2022/08/04 12:17:49;;;;;;;11.63;5.37;;;;;;;;;;5075074;28;20178;-66
2022/08/04 12:20:21;;;;;;;8.30;5.07;;;;;;;;;;5057075;28;20261;-67
2022/08/04 12:22:49;;;;;;;9.70;5.82;;;;;;;;;;5055733;28;20178;-66
2022/08/04 12:25:21;;;;;;;11.73;5.93;;;;;;;;;;5075553;28;20235;-67
2022/08/04 12:27:57;;;;;;;10.27;5.43;;;;;;;;;;5074736;28;20661;-67
2022/08/04 12:30:24;;;;;;;9.82;5.50;;;;;;;;;;5074855;28;20228;-67
2022/08/04 12:33:03;;;;;;;7.87;6.07;;;;;;;;;;5056860;28;20178;-66
2022/08/04 12:35:56;;;;;;;8.90;4.23;;;;;;;;;;5056848;28;20227;-67
2022/08/04 12:38:24;;;;;;;6.32;4.00;;;;;;;;;;5054654;28;20186;-67
2022/08/04 12:40:52;;;;;;;8.27;3.88;;;;;;;;;;5074908;28;20543;-66
2022/08/04 12:43:19;;;;;;;10.95;4.35;;;;;;;;;;5056730;28;20255;-67
2022/08/04 12:45:48;;;;;;;7.45;3.47;;;;;;;;;;5074689;28;20178;-67
2022/08/04 12:48:15;;;;;;;7.47;3.30;;;;;;;;;;5056576;28;20170;-67
2022/08/04 12:50:41;;;;;;;14.63;3.25;;;;;;;;;;5056536;28;20737;-67
2022/08/04 12:53:12;;;;;;;10.60;3.85;;;;;;;;;;5074587;28;20202;-67
2022/08/04 12:55:38;;;;;;;8.10;3.65;;;;;;;;;;5056314;28;20273;-67
2022/08/04 12:58:14;;;;;;;3.92;3.38;;;;;;;;;;5056350;28;20170;-67
2022/08/04 13:00:40;;;;;;;6.63;3.47;;;;;;;;;;5074567;28;20197;-69
2022/08/04 13:03:08;;;;;;;4.65;3.00;;;;;;;;;;5073950;28;20201;-66
2022/08/04 13:05:34;;;;;;;4.78;2.95;;;;;;;;;;5056098;28;20181;-67
2022/08/04 13:08:01;;;;;;;5.30;3.37;;;;;;;;;;5074005;28;20216;-67
2022/08/04 13:10:29;;;;;;;5.90;2.90;;;;;;;;;;5056001;28;20182;-67
2022/08/04 13:12:59;;;;;;;7.57;3.03;;;;;;;;;;5073804;28;20257;-67
2022/08/04 13:15:25;;;;;;;6.37;2.90;;;;;;;;;;5074226;28;20173;-67
2022/08/04 13:17:51;;;;;;;3.83;2.87;;;;;;;;;;5073800;28;20205;-67
2022/08/04 13:20:23;;;;;;;5.28;2.75;;;;;;;;;;5055806;28;20228;-67
2022/08/04 13:22:49;;;;;;;6.10;2.90;;;;;;;;;;5073443;28;20192;-68
2022/08/04 13:25:16;;;;;;;5.83;2.90;;;;;;;;;;5074035;28;20560;-67
2022/08/04 13:27:45;;;;;;;3.75;2.95;;;;;;;;;;5055611;28;20233;-67
2022/08/04 13:30:12;;;;;;;4.37;2.80;;;;;;;;;;5055880;28;20239;-67
2022/08/04 13:32:38;;;;;;;6.70;2.97;;;;;;;;;;5055265;28;20170;-68
2022/08/04 13:35:07;;;;;;;4.60;2.92;;;;;;;;;;5055581;28;20189;-65
2022/08/04 13:37:34;;;;;;;6.40;2.80;;;;;;;;;;5055826;28;20174;-67
2022/08/04 13:40:01;;;;;;;5.15;2.72;;;;;;;;;;5073608;28;20201;-65
2022/08/04 13:42:27;;;;;;;4.28;2.88;;;;;;;;;;5055492;28;20174;-65
2022/08/04 13:44:58;;;;;;;5.22;2.85;;;;;;;;;;5055439;28;20205;-66
2022/08/04 13:47:26;;;;;;;5.72;3.05;;;;;;;;;;5073558;28;20262;-65
2022/08/04 13:50:09;;;;;;;3.25;2.90;;;;;;;;;;5073387;28;20181;-66
2022/08/04 13:52:35;;;;;;;5.28;3.13;;;;;;;;;;5073993;28;20292;-65
2022/08/04 13:55:01;;;;;;;9.98;3.92;;;;;;;;;;5073211;28;20251;-68
2022/08/04 13:57:29;;;;;;;5.90;3.45;;;;;;;;;;5073980;28;20177;-66
2022/08/04 14:00:02;;;;;;;8.68;2.97;;;;;;;;;;5073227;28;20177;-66
2022/08/04 14:02:38;;;;;;;5.80;2.97;;;;;;;;;;5073171;28;20668;-66
2022/08/04 14:05:08;;;;;;;3.85;3.00;;;;;;;;;;5055639;28;20538;-66
2022/08/04 14:07:40;;;;;;;3.90;2.95;;;;;;;;;;5073251;28;20625;-66
2022/08/04 14:10:10;;;;;;;6.72;3.50;;;;;;;;;;5073584;28;20653;-67
2022/08/04 14:12:42;;;;;;;5.75;3.55;;;;;;;;;;5073580;28;20178;-67
2022/08/04 14:15:28;;;;;;;11.05;3.75;;;;;;;;;;5073610;28;20165;-67
2022/08/04 14:17:54;;;;;;;4.18;3.15;;;;;;;;;;5073881;28;20161;-67
2022/08/04 14:20:20;;;;;;;5.93;3.08;;;;;;;;;;5073124;28;20232;-67
2022/08/04 14:22:46;;;;;;;10.13;3.80;;;;;;;;;;5073175;28;20177;-68
2022/08/04 14:25:13;;;;;;;7.70;3.00;;;;;;;;;;5073328;28;20235;-68
2022/08/04 14:27:50;;;;;;;11.02;3.78;;;;;;;;;;5073086;28;20223;-68
2022/08/04 14:30:35;;;;;;;15.13;5.18;;;;;;;;;;5055213;28;20174;-67
2022/08/04 14:33:02;;;;;;;8.07;3.75;;;;;;;;;;5055068;28;20186;-67
2022/08/04 14:35:30;;;;;;;4.95;3.63;;;;;;;;;;5073709;28;20170;-67
2022/08/04 14:37:57;;;;;;;4.90;2.70;;;;;;;;;;5055188;28;20264;-67
2022/08/04 14:40:24;;;;;;;8.20;3.13;;;;;;;;;;5072941;28;20634;-67
2022/08/04 14:42:50;;;;;;;12.73;3.03;;;;;;;;;;5072876;28;20614;-67
2022/08/04 14:45:16;;;;;;;3.58;2.72;;;;;;;;;;5056251;28;20277;-66
2022/08/04 14:47:44;;;;;;;4.30;2.60;;;;;;;;;;5058817;28;20190;-67
2022/08/04 14:50:10;;;;;;;5.05;3.00;;;;;;;;;;5058875;28;20184;-67
2022/08/04 14:52:36;;;;;;;4.00;2.83;;;;;;;;;;5076845;28;20178;-67
2022/08/04 14:55:22;;;;;;;3.10;2.60;;;;;;;;;;5058548;28;20201;-67
2022/08/04 14:57:51;;;;;;;23.47;16.60;;;;;;;;;;5076567;28;20532;-67
2022/08/04 15:00:25;;;;;;;5.20;3.27;;;;;;;;;;5059040;28;20181;-66
2022/08/04 15:02:52;;;;;;;4.95;3.15;;;;;;;;;;5076484;28;20243;-67
2022/08/04 15:05:19;;;;;;;7.13;3.00;;;;;;;;;;5076917;28;20224;-68
2022/08/04 15:07:46;;;;;;;6.40;3.03;;;;;;;;;;5076650;28;20569;-67
2022/08/04 15:10:12;;;;;;;6.90;3.00;;;;;;;;;;5076482;28;20181;-69